Time,TemperatureF,DewpointF,PressureIn,WindDirection,WindDirectionDegrees,WindSpeedMPH,WindSpeedGustMPH,Humidity,HourlyPrecipIn,Conditions,Clouds,dailyrainin,SolarRadiationWatts/m^2,SoftwareType,DateUTC
2013-01-09 00:12:00,66.0,26.0,-100.00,SE,142,3.0,10.0,22,-99.99,,,0.00,0.000000,,2013-01-09 08:12:00,
2013-01-09 00:22:00,66.0,26.0,-100.00,SE,142,3.0,10.0,22,-99.99,,,0.00,0.000000,,2013-01-09 08:22:00,
2013-01-09 00:51:00,61.0,29.0,-100.00,West,267,4.0,7.0,29,-99.99,,,0.00,0.000000,,2013-01-09 08:51:00,
2013-01-09 01:12:00,61.0,29.0,-100.00,West,267,4.0,7.0,29,-99.99,,,0.00,0.000000,,2013-01-09 09:12:00,
2013-01-09 01:22:00,61.0,29.0,-100.00,West,267,4.0,7.0,29,-99.99,,,0.00,0.000000,,2013-01-09 09:22:00,
2013-01-09 01:32:00,61.0,29.0,-100.00,West,267,4.0,7.0,29,-99.99,,,0.00,0.000000,,2013-01-09 09:32:00,
2013-01-09 01:42:00,61.0,29.0,-100.00,West,267,4.0,7.0,29,-99.99,,,0.00,0.000000,,2013-01-09 09:42:00,
2013-01-09 02:22:00,64.0,24.0,-100.00,South,180,5.0,7.0,22,-99.99,,,0.00,0.000000,,2013-01-09 10:22:00,
2013-01-09 03:22:00,63.0,24.0,-100.00,South,181,6.0,8.0,22,-99.99,,,0.00,0.000000,,2013-01-09 11:22:00,
2013-01-09 03:51:00,62.0,24.0,-100.00,East,93,1.0,7.0,23,-99.99,,,0.00,0.000000,,2013-01-09 11:51:00,
2013-01-09 04:12:00,62.0,24.0,-100.00,East,93,1.0,7.0,23,-99.99,,,0.00,0.000000,,2013-01-09 12:12:00,
2013-01-09 04:22:00,62.0,24.0,-100.00,East,93,1.0,7.0,23,-99.99,,,0.00,0.000000,,2013-01-09 12:22:00,
2013-01-09 04:33:00,62.0,24.0,-100.00,East,93,1.0,7.0,23,-99.99,,,0.00,0.000000,,2013-01-09 12:33:00,
2013-01-09 04:42:00,62.0,24.0,-100.00,East,93,1.0,7.0,23,-99.99,,,0.00,0.000000,,2013-01-09 12:42:00,
2013-01-09 05:12:00,63.0,26.0,-100.00,East,89,2.0,5.0,24,-99.99,,,0.00,0.000000,,2013-01-09 13:12:00,
2013-01-09 05:22:00,63.0,26.0,-100.00,East,89,2.0,5.0,24,-99.99,,,0.00,0.000000,,2013-01-09 13:22:00,
2013-01-09 05:32:00,63.0,26.0,-100.00,East,89,2.0,5.0,24,-99.99,,,0.00,0.000000,,2013-01-09 13:32:00,
2013-01-09 06:12:00,63.0,24.0,-100.00,South,189,6.0,8.0,22,-99.99,,,-99.99,0.000000,,2013-01-09 14:12:00,
2013-01-09 06:22:00,63.0,24.0,-100.00,South,189,6.0,8.0,22,-99.99,,,-99.99,0.000000,,2013-01-09 14:22:00,
2013-01-09 06:33:00,63.0,24.0,-100.00,South,189,6.0,8.0,22,-99.99,,,-99.99,0.000000,,2013-01-09 14:33:00,
2013-01-09 06:51:00,61.0,27.0,-100.00,East,85,6.0,8.0,27,-99.99,,,0.00,1.000000,,2013-01-09 14:51:00,
2013-01-09 07:12:00,61.0,27.0,-100.00,East,85,6.0,8.0,27,-99.99,,,0.00,1.000000,,2013-01-09 15:12:00,
2013-01-09 07:22:00,61.0,27.0,-100.00,East,85,6.0,8.0,27,-99.99,,,0.00,1.000000,,2013-01-09 15:22:00,
2013-01-09 07:33:00,61.0,27.0,-100.00,East,85,6.0,8.0,27,-99.99,,,0.00,1.000000,,2013-01-09 15:33:00,
2013-01-09 07:42:00,61.0,27.0,-100.00,East,85,6.0,8.0,27,-99.99,,,0.00,1.000000,,2013-01-09 15:42:00,
2013-01-09 09:12:00,65.0,31.0,-100.00,South,191,2.0,5.0,28,-99.99,,,0.00,162.000000,,2013-01-09 17:12:00,
2013-01-09 09:22:00,65.0,31.0,-100.00,South,191,2.0,5.0,28,-99.99,,,0.00,162.000000,,2013-01-09 17:22:00,
2013-01-09 09:51:00,62.0,34.0,-100.00,SW,215,8.0,11.0,35,0.00,,,0.00,321.000000,,2013-01-09 17:51:00,
2013-01-09 10:23:00,62.0,34.0,-100.00,SW,215,8.0,11.0,35,0.00,,,0.00,321.000000,,2013-01-09 18:23:00,
2013-01-09 10:33:00,62.0,34.0,-100.00,SW,215,8.0,11.0,35,0.00,,,0.00,321.000000,,2013-01-09 18:33:00,
2013-01-09 10:43:00,62.0,34.0,-100.00,SW,215,8.0,11.0,35,0.00,,,0.00,321.000000,,2013-01-09 18:43:00,
2013-01-09 10:51:00,64.0,36.0,-100.00,SSW,204,7.0,11.0,35,0.00,,,0.00,407.000000,,2013-01-09 18:51:00,
2013-01-09 11:22:00,64.0,36.0,-100.00,SSW,204,7.0,11.0,35,0.00,,,0.00,407.000000,,2013-01-09 19:22:00,
2013-01-09 11:33:00,64.0,36.0,-100.00,SSW,204,7.0,11.0,35,0.00,,,0.00,407.000000,,2013-01-09 19:33:00,
2013-01-09 11:43:00,64.0,36.0,-100.00,SSW,204,7.0,11.0,35,0.00,,,0.00,407.000000,,2013-01-09 19:43:00,
2013-01-09 11:51:00,65.0,31.0,-100.00,SSW,202,12.0,18.0,28,0.00,,,0.00,493.000000,,2013-01-09 19:51:00,
2013-01-09 12:22:00,65.0,31.0,-100.00,SSW,202,12.0,18.0,28,0.00,,,0.00,493.000000,,2013-01-09 20:22:00,
2013-01-09 12:33:00,65.0,31.0,-100.00,SSW,202,12.0,18.0,28,0.00,,,0.00,493.000000,,2013-01-09 20:33:00,
2013-01-09 12:42:00,65.0,31.0,-100.00,SSW,202,12.0,18.0,28,0.00,,,0.00,493.000000,,2013-01-09 20:42:00,
2013-01-09 12:51:00,63.0,32.0,-100.00,SSW,204,13.0,20.0,31,0.00,,,-99.99,468.000000,,2013-01-09 20:51:00,
2013-01-09 13:22:00,63.0,32.0,-100.00,SSW,204,13.0,20.0,31,0.00,,,-99.99,468.000000,,2013-01-09 21:22:00,
2013-01-09 13:33:00,63.0,32.0,-100.00,SSW,204,13.0,20.0,31,0.00,,,-99.99,468.000000,,2013-01-09 21:33:00,
2013-01-09 13:42:00,63.0,32.0,-100.00,SSW,204,13.0,20.0,31,0.00,,,-99.99,468.000000,,2013-01-09 21:42:00,
2013-01-09 13:51:00,65.0,38.0,-100.00,SSW,206,11.0,17.0,37,0.00,,,0.00,432.000000,,2013-01-09 21:51:00,
2013-01-09 14:22:00,65.0,38.0,-100.00,SSW,206,11.0,17.0,37,0.00,,,0.00,432.000000,,2013-01-09 22:22:00,
2013-01-09 14:33:00,65.0,38.0,-100.00,SSW,206,11.0,17.0,37,0.00,,,0.00,432.000000,,2013-01-09 22:33:00,
2013-01-09 14:42:00,65.0,38.0,-100.00,SSW,206,11.0,17.0,37,0.00,,,0.00,432.000000,,2013-01-09 22:42:00,
2013-01-09 14:51:00,63.0,42.0,-100.00,SSW,199,9.0,18.0,47,0.00,,,0.00,290.000000,,2013-01-09 22:51:00,
2013-01-09 15:22:00,63.0,42.0,-100.00,SSW,199,9.0,18.0,47,0.00,,,0.00,290.000000,,2013-01-09 23:22:00,
2013-01-09 15:32:00,63.0,42.0,-100.00,SSW,199,9.0,18.0,47,0.00,,,0.00,290.000000,,2013-01-09 23:32:00,
2013-01-09 15:42:00,63.0,42.0,-100.00,SSW,199,9.0,18.0,47,0.00,,,0.00,290.000000,,2013-01-09 23:42:00,
2013-01-09 15:51:00,61.0,47.0,-100.00,SW,221,9.0,13.0,59,0.00,,,0.00,189.000000,,2013-01-09 23:51:00,
2013-01-09 16:22:00,61.0,47.0,-100.00,SW,221,9.0,13.0,59,0.00,,,0.00,189.000000,,2013-01-10 00:22:00,
2013-01-09 16:32:00,61.0,47.0,-100.00,SW,221,9.0,13.0,59,0.00,,,0.00,189.000000,,2013-01-10 00:32:00,
2013-01-09 16:42:00,61.0,47.0,-100.00,SW,221,9.0,13.0,59,0.00,,,0.00,189.000000,,2013-01-10 00:42:00,
2013-01-09 16:51:00,55.0,47.0,-100.00,SW,233,5.0,12.0,75,0.00,,,0.00,60.000000,,2013-01-10 00:51:00,
2013-01-09 17:12:00,55.0,47.0,-100.00,SW,233,5.0,12.0,75,0.00,,,0.00,60.000000,,2013-01-10 01:12:00,
2013-01-09 17:22:00,55.0,47.0,-100.00,SW,233,5.0,12.0,75,0.00,,,0.00,60.000000,,2013-01-10 01:22:00,
2013-01-09 17:32:00,55.0,47.0,-100.00,SW,233,5.0,12.0,75,0.00,,,0.00,60.000000,,2013-01-10 01:32:00,
2013-01-09 17:42:00,55.0,47.0,-100.00,SW,233,5.0,12.0,75,0.00,,,0.00,60.000000,,2013-01-10 01:42:00,
2013-01-09 17:51:00,52.0,45.0,-100.00,SW,225,10.0,11.0,77,0.00,,,0.00,2.000000,,2013-01-10 01:51:00,
2013-01-09 18:12:00,52.0,45.0,-100.00,SW,225,10.0,11.0,77,0.00,,,0.00,2.000000,,2013-01-10 02:12:00,
2013-01-09 18:22:00,52.0,45.0,-100.00,SW,225,10.0,11.0,77,0.00,,,0.00,2.000000,,2013-01-10 02:22:00,
2013-01-09 18:32:00,52.0,45.0,-100.00,SW,225,10.0,11.0,77,0.00,,,0.00,2.000000,,2013-01-10 02:32:00,
2013-01-09 18:42:00,52.0,45.0,-100.00,SW,225,10.0,11.0,77,0.00,,,0.00,2.000000,,2013-01-10 02:42:00,
2013-01-09 18:51:00,49.0,48.0,-100.00,SSW,192,10.0,12.0,97,0.00,,,0.00,0.000000,,2013-01-10 02:51:00,
2013-01-09 19:12:00,49.0,48.0,-100.00,SSW,192,10.0,12.0,97,0.00,,,0.00,0.000000,,2013-01-10 03:12:00,
2013-01-09 19:22:00,49.0,48.0,-100.00,SSW,192,10.0,12.0,97,0.00,,,0.00,0.000000,,2013-01-10 03:22:00,
2013-01-09 19:32:00,49.0,48.0,-100.00,SSW,192,10.0,12.0,97,0.00,,,0.00,0.000000,,2013-01-10 03:32:00,
2013-01-09 19:42:00,49.0,48.0,-100.00,SSW,192,10.0,12.0,97,0.00,,,0.00,0.000000,,2013-01-10 03:42:00,
2013-01-09 19:51:00,48.0,48.0,-100.00,SSW,194,10.0,14.0,100,0.00,,,0.00,0.000000,,2013-01-10 03:51:00,
2013-01-09 20:12:00,48.0,48.0,-100.00,SSW,194,10.0,14.0,100,0.00,,,0.00,0.000000,,2013-01-10 04:12:00,
2013-01-09 20:22:00,48.0,48.0,-100.00,SSW,194,10.0,14.0,100,0.00,,,0.00,0.000000,,2013-01-10 04:22:00,
2013-01-09 20:32:00,48.0,48.0,-100.00,SSW,194,10.0,14.0,100,0.00,,,0.00,0.000000,,2013-01-10 04:32:00,
2013-01-09 20:42:00,48.0,48.0,-100.00,SSW,194,10.0,14.0,100,0.00,,,0.00,0.000000,,2013-01-10 04:42:00,
2013-01-09 20:51:00,47.0,47.0,-100.00,South,181,8.0,14.0,100,0.00,,,0.00,0.000000,,2013-01-10 04:51:00,
2013-01-09 21:12:00,47.0,47.0,-100.00,South,181,8.0,14.0,100,0.00,,,0.00,0.000000,,2013-01-10 05:12:00,
2013-01-09 21:22:00,47.0,47.0,-100.00,South,181,8.0,14.0,100,0.00,,,0.00,0.000000,,2013-01-10 05:22:00,
2013-01-09 21:33:00,47.0,47.0,-100.00,South,181,8.0,14.0,100,0.00,,,0.00,0.000000,,2013-01-10 05:33:00,
2013-01-09 21:42:00,47.0,47.0,-100.00,South,181,8.0,14.0,100,0.00,,,0.00,0.000000,,2013-01-10 05:42:00,
2013-01-09 21:51:00,46.0,46.0,-100.00,SSE,168,7.0,10.0,100,0.00,,,0.00,0.000000,,2013-01-10 05:51:00,
2013-01-09 22:11:00,46.0,46.0,-100.00,SSE,168,7.0,10.0,100,0.00,,,0.00,0.000000,,2013-01-10 06:11:00,
2013-01-09 22:22:00,46.0,46.0,-100.00,SSE,168,7.0,10.0,100,0.00,,,0.00,0.000000,,2013-01-10 06:22:00,
2013-01-09 22:32:00,46.0,46.0,-100.00,SSE,168,7.0,10.0,100,0.00,,,0.00,0.000000,,2013-01-10 06:32:00,
2013-01-09 22:42:00,46.0,46.0,-100.00,SSE,168,7.0,10.0,100,0.00,,,0.00,0.000000,,2013-01-10 06:42:00,
2013-01-09 22:51:00,46.0,46.0,-100.00,South,185,10.0,14.0,100,0.00,,,0.00,0.000000,,2013-01-10 06:51:00,
2013-01-09 23:12:00,46.0,46.0,-100.00,South,185,10.0,14.0,100,0.00,,,0.00,0.000000,,2013-01-10 07:12:00,
2013-01-09 23:22:00,46.0,46.0,-100.00,South,185,10.0,14.0,100,0.00,,,0.00,0.000000,,2013-01-10 07:22:00,
2013-01-09 23:32:00,46.0,46.0,-100.00,South,185,10.0,14.0,100,0.00,,,0.00,0.000000,,2013-01-10 07:32:00,
2013-01-09 23:42:00,46.0,46.0,-100.00,South,185,10.0,14.0,100,0.00,,,0.00,0.000000,,2013-01-10 07:42:00,
2013-01-09 23:51:00,47.0,47.0,-100.00,South,169,11.0,19.0,100,0.00,,,0.00,0.000000,,2013-01-10 07:51:00,